Terminal Aerodrome Forecast
Issued by NWS Blacksburg, VA

Current Version | Previous Version | Graphics & Text | Print | Product List | Glossary On
Versions: 1 2 3 4 5 6 7 8 9 10 11 12 13
000
FTUS41 KRNK 250552
TAFBLF
TAF
KBLF 250552Z 2506/2606 28006KT P6SM SCT045 BKN250
      TEMPO 2507/2511 BKN045
     FM251100 29009G17KT P6SM BKN035 BKN250
     FM251600 29011G21KT P6SM FEW045 SCT250
     FM252300 29007KT P6SM FEW050=

USA.gov is the U.S. government's official web portal to all federal, state and local government web resources and services.